createdAt,value
2023-04-11T00:00:16.132Z,46.70
2023-04-11T00:02:46.942Z,46.74
2023-04-11T00:05:15.126Z,47.80
2023-04-11T00:07:43.221Z,47.50
2023-04-11T00:10:11.888Z,47.91
2023-04-11T00:12:40.009Z,47.51
2023-04-11T00:15:09.553Z,47.73
2023-04-11T00:17:38.149Z,47.41
2023-04-11T00:20:10.932Z,47.68
2023-04-11T00:22:39.487Z,47.87
2023-04-11T00:25:08.690Z,47.98
2023-04-11T00:27:36.834Z,47.52
2023-04-11T00:30:06.086Z,47.43
2023-04-11T00:32:34.318Z,47.37
2023-04-11T00:35:02.931Z,47.13
2023-04-11T00:37:36.319Z,47.38
2023-04-11T00:40:06.849Z,47.49
2023-04-11T00:42:35.367Z,47.77
2023-04-11T00:45:04.218Z,47.75
2023-04-11T00:47:34.614Z,47.95
2023-04-11T00:50:03.123Z,48.01
2023-04-11T00:52:32.674Z,48.16
2023-04-11T00:55:03.864Z,48.24
2023-04-11T00:57:32.315Z,48.42
2023-04-11T01:00:03.435Z,48.30
2023-04-11T01:02:32.172Z,48.28
2023-04-11T01:05:00.925Z,48.47
2023-04-11T01:07:30.984Z,49.00
2023-04-11T01:10:01.467Z,48.64
2023-04-11T01:12:31.483Z,49.99
2023-04-11T01:14:59.996Z,50.17
2023-04-11T01:17:28.448Z,50.08
2023-04-11T01:19:56.610Z,51.37
2023-04-11T01:22:27.270Z,53.96
2023-04-11T01:24:57.127Z,55.18
2023-04-11T01:27:25.310Z,56.43
2023-04-11T01:29:53.416Z,57.90
2023-04-11T01:32:21.513Z,58.17
2023-04-11T01:34:53.652Z,59.44
2023-04-11T01:37:21.831Z,61.16
2023-04-11T01:39:49.968Z,60.93
2023-04-11T01:42:20.538Z,61.28
2023-04-11T01:44:49.675Z,61.34
2023-04-11T01:47:17.846Z,62.69
2023-04-11T01:49:45.978Z,63.13
2023-04-11T01:52:15.475Z,63.11
2023-04-11T01:54:43.562Z,64.03
2023-04-11T01:57:11.646Z,65.16
2023-04-11T01:59:41.040Z,65.33
2023-04-11T02:02:09.257Z,66.01
2023-04-11T02:04:37.412Z,65.76
2023-04-11T02:07:06.034Z,64.92
2023-04-11T02:09:34.085Z,65.17
2023-04-11T02:12:02.152Z,65.12
2023-04-11T02:14:42.800Z,64.98
2023-04-11T02:17:10.963Z,65.84
2023-04-11T02:19:41.052Z,65.27
2023-04-11T02:22:09.984Z,66.28
2023-04-11T02:24:38.582Z,66.33
2023-04-11T02:27:07.550Z,66.96
2023-04-11T02:29:42.301Z,67.29
2023-04-11T02:32:10.648Z,67.46
2023-04-11T02:34:39.638Z,67.67
2023-04-11T02:37:07.686Z,68.44
2023-04-11T02:39:35.836Z,68.04
2023-04-11T02:42:04.084Z,68.35
2023-04-11T02:44:33.597Z,68.07
2023-04-11T02:47:03.474Z,67.85
2023-04-11T02:49:32.132Z,67.61
2023-04-11T02:52:00.943Z,68.16
2023-04-11T02:54:29.105Z,68.55
2023-04-11T02:59:56.236Z,68.42
2023-04-11T03:02:31.779Z,68.69
2023-04-11T03:05:04.170Z,68.06
2023-04-11T03:07:34.985Z,68.75
2023-04-11T03:10:03.118Z,68.04
2023-04-11T03:12:31.536Z,68.99
2023-04-11T03:15:03.019Z,69.19
2023-04-11T03:17:32.536Z,69.11
2023-04-11T03:20:00.903Z,69.27
2023-04-11T03:22:28.988Z,69.11
2023-04-11T03:24:57.029Z,68.65
2023-04-11T03:27:25.368Z,68.55
2023-04-11T03:29:57.758Z,68.71
2023-04-11T03:32:34.211Z,69.15
2023-04-11T03:35:02.648Z,69.37
2023-04-11T03:37:30.732Z,69.07
2023-04-11T03:39:58.749Z,68.91
2023-04-11T03:42:27.165Z,69.36
2023-04-11T03:44:59.429Z,69.00
2023-04-11T03:47:27.554Z,69.25
2023-04-11T03:49:57.427Z,69.09
2023-04-11T03:52:25.616Z,70.02
2023-04-11T03:54:53.775Z,70.04
2023-04-11T03:57:26.780Z,70.50
2023-04-11T03:59:56.977Z,70.84
2023-04-11T04:02:25.389Z,70.29
2023-04-11T04:04:58.276Z,70.86
2023-04-11T04:07:39.027Z,70.29
2023-04-11T04:10:24.075Z,70.69
2023-04-11T04:12:54.550Z,71.03
2023-04-11T04:15:25.977Z,70.71
2023-04-11T04:17:55.571Z,70.86
2023-04-11T04:20:35.065Z,70.28
2023-04-11T04:23:05.501Z,70.52
2023-04-11T04:25:52.222Z,70.52
2023-04-11T04:28:25.992Z,70.37
2023-04-11T04:30:58.073Z,70.82
2023-04-11T04:33:32.877Z,70.72
2023-04-11T04:36:04.360Z,70.04
2023-04-11T04:38:38.418Z,70.01
2023-04-11T04:41:14.924Z,69.46
2023-04-11T04:43:46.550Z,70.31
2023-04-11T04:46:19.220Z,69.53
2023-04-11T04:48:51.302Z,70.24
2023-04-11T04:51:19.391Z,70.45
2023-04-11T04:53:48.796Z,70.94
2023-04-11T04:56:16.888Z,70.06
2023-04-11T04:58:47.990Z,70.16
2023-04-11T05:01:17.902Z,69.62
2023-04-11T05:03:58.773Z,69.61
2023-04-11T05:06:39.150Z,68.79
2023-04-11T05:09:08.559Z,67.73
2023-04-11T05:11:37.069Z,68.75
2023-04-11T05:14:05.337Z,69.27
2023-04-11T05:16:33.706Z,68.90
2023-04-11T05:19:02.029Z,68.53
2023-04-11T05:21:31.935Z,68.42
2023-04-11T05:24:00.046Z,68.08
2023-04-11T05:26:29.862Z,68.25
2023-04-11T05:28:57.933Z,68.40
2023-04-11T05:31:28.989Z,68.30
2023-04-11T05:33:57.884Z,68.27
2023-04-11T05:36:28.396Z,67.89
2023-04-11T05:38:56.869Z,67.58
2023-04-11T05:41:24.906Z,67.88
2023-04-11T05:43:54.484Z,67.01
2023-04-11T05:46:22.797Z,67.49
2023-04-11T05:48:50.999Z,67.28
2023-04-11T05:51:20.289Z,67.97
2023-04-11T05:53:48.253Z,67.10
2023-04-11T05:56:16.268Z,67.43
2023-04-11T05:58:44.790Z,68.10
2023-04-11T06:01:18.207Z,68.17
2023-04-11T06:03:47.071Z,67.83
2023-04-11T06:06:15.787Z,67.41
2023-04-11T06:08:44.142Z,67.35
2023-04-11T06:11:12.243Z,67.77
2023-04-11T06:13:40.260Z,68.14
2023-04-11T06:16:09.365Z,67.98
2023-04-11T06:18:38.736Z,67.58
2023-04-11T06:21:07.168Z,67.40
2023-04-11T06:23:35.189Z,67.09
2023-04-11T06:26:03.273Z,67.29
2023-04-11T06:28:31.337Z,67.01
2023-04-11T06:30:59.390Z,67.43
2023-04-11T06:33:27.391Z,67.81
2023-04-11T06:35:56.795Z,67.95
2023-04-11T06:38:24.996Z,67.77
2023-04-11T06:40:54.553Z,67.71
2023-04-11T06:43:22.629Z,67.83
2023-04-11T06:45:51.607Z,67.66
2023-04-11T06:48:20.936Z,67.89
2023-04-11T06:50:49.712Z,67.92
2023-04-11T06:53:19.070Z,67.84
2023-04-11T06:55:49.820Z,67.68
2023-04-11T06:58:18.018Z,67.54
2023-04-11T07:00:46.045Z,67.78
2023-04-11T07:03:14.177Z,67.42
2023-04-11T07:05:42.253Z,67.59
2023-04-11T07:08:10.452Z,67.69
2023-04-11T07:10:39.809Z,67.58
2023-04-11T07:13:07.844Z,67.16
2023-04-11T07:15:35.989Z,67.37
2023-04-11T07:18:04.067Z,66.90
2023-04-11T07:20:33.003Z,67.02
2023-04-11T07:23:01.147Z,66.55
2023-04-11T07:25:30.844Z,66.61
2023-04-11T07:28:01.517Z,67.38
2023-04-11T07:30:29.700Z,66.57
2023-04-11T07:32:57.684Z,66.86
2023-04-11T07:35:25.840Z,66.59
2023-04-11T07:37:53.877Z,66.97
2023-04-11T07:40:21.976Z,66.26
2023-04-11T07:42:49.973Z,66.38
2023-04-11T07:45:19.442Z,66.96
2023-04-11T07:47:47.668Z,66.64
2023-04-11T07:50:15.932Z,66.01
2023-04-11T07:52:44.061Z,67.41
2023-04-11T07:55:12.368Z,66.81
2023-04-11T07:57:40.404Z,66.58
2023-04-11T08:00:19.441Z,66.07
2023-04-11T08:02:49.028Z,65.34
2023-04-11T08:05:17.220Z,65.43
2023-04-11T08:07:45.307Z,64.85
2023-04-11T08:10:13.621Z,65.30
2023-04-11T08:13:05.356Z,63.01
2023-04-11T08:15:34.773Z,62.62
2023-04-11T08:18:05.278Z,63.63
2023-04-11T08:20:35.972Z,62.97
2023-04-11T08:23:07.882Z,63.97
2023-04-11T08:25:37.432Z,63.53
2023-04-11T08:28:06.495Z,62.05
2023-04-11T08:30:34.667Z,62.07
2023-04-11T08:33:04.249Z,62.14
2023-04-11T08:35:32.417Z,62.39
2023-04-11T08:38:00.435Z,61.01
2023-04-11T08:40:29.350Z,60.86
2023-04-11T08:43:00.795Z,60.38
2023-04-11T08:45:29.722Z,59.57
2023-04-11T08:47:57.771Z,58.64
2023-04-11T08:50:27.274Z,58.01
2023-04-11T08:52:55.805Z,57.85
2023-04-11T08:55:23.945Z,59.00
2023-04-11T08:57:53.550Z,59.24
2023-04-11T09:00:25.173Z,58.55
2023-04-11T09:02:58.911Z,56.81
2023-04-11T09:05:30.370Z,57.95
2023-04-11T09:08:00.945Z,57.86
2023-04-11T09:10:29.323Z,58.76
2023-04-11T09:12:58.484Z,56.47
2023-04-11T09:15:29.273Z,56.94
2023-04-11T09:18:00.606Z,57.03
2023-04-11T09:27:14.022Z,56.87
2023-04-11T09:29:45.291Z,57.57
2023-04-11T09:32:30.478Z,55.26
2023-04-11T09:35:16.556Z,55.14
2023-04-11T09:37:48.508Z,56.14
2023-04-11T09:40:19.311Z,55.28
2023-04-11T09:42:49.192Z,55.53
2023-04-11T09:45:23.939Z,54.67
2023-04-11T09:47:55.523Z,55.03
2023-04-11T09:50:24.647Z,54.55
2023-04-11T09:52:57.778Z,54.39
2023-04-11T09:55:27.296Z,54.75
2023-04-11T09:57:56.035Z,55.23
2023-04-11T10:00:29.342Z,55.85
2023-04-11T10:02:58.096Z,54.12
2023-04-11T10:05:27.892Z,53.98
2023-04-11T10:08:04.896Z,53.52
2023-04-11T10:10:33.732Z,54.00
2023-04-11T10:13:01.756Z,55.96
2023-04-11T10:15:30.181Z,57.97
2023-04-11T10:18:14.136Z,58.10
2023-04-11T10:20:47.370Z,58.28
2023-04-11T10:23:17.771Z,59.10
2023-04-11T10:25:56.519Z,58.60
2023-04-11T10:28:38.827Z,58.42
2023-04-11T10:31:09.858Z,58.08
2023-04-11T10:33:39.644Z,59.48
2023-04-11T10:36:11.070Z,57.89
2023-04-11T10:38:51.273Z,56.92
2023-04-11T10:41:31.813Z,55.98
2023-04-11T10:44:20.809Z,54.68
2023-04-11T10:46:51.852Z,53.50
2023-04-11T10:49:37.715Z,51.64
2023-04-11T10:52:20.917Z,53.55
2023-04-11T10:54:51.692Z,52.59
2023-04-11T10:57:21.063Z,49.52
2023-04-11T11:00:10.724Z,50.78
2023-04-11T11:02:40.874Z,50.15
2023-04-11T11:05:25.546Z,49.95
2023-04-11T11:07:54.887Z,50.44
2023-04-11T11:10:42.827Z,50.51
2023-04-11T11:13:14.202Z,49.67
2023-04-11T11:15:50.018Z,49.09
2023-04-11T11:18:19.014Z,49.18
2023-04-11T11:20:47.118Z,49.92
2023-04-11T11:23:15.430Z,48.57
2023-04-11T11:25:54.827Z,49.12
2023-04-11T11:28:23.222Z,48.22
2023-04-11T11:30:54.866Z,48.45
2023-04-11T11:33:26.456Z,49.86
2023-04-11T11:35:58.250Z,50.73
2023-04-11T11:38:29.005Z,50.02
2023-04-11T11:40:59.999Z,49.06
2023-04-11T11:43:28.940Z,47.12
2023-04-11T11:46:12.106Z,49.14
2023-04-11T11:48:40.287Z,49.41
2023-04-11T11:51:08.629Z,48.75
2023-04-11T11:53:37.004Z,47.85
2023-04-11T11:56:17.007Z,48.40
2023-04-11T11:58:45.960Z,48.13
2023-04-11T12:01:17.121Z,46.92
2023-04-11T12:03:48.212Z,46.19
2023-04-11T12:06:17.782Z,46.01
2023-04-11T12:08:50.234Z,46.75
2023-04-11T12:11:19.805Z,45.72
2023-04-11T12:13:54.796Z,46.41
2023-04-11T12:16:24.156Z,45.65
2023-04-11T12:18:52.405Z,45.91
2023-04-11T12:21:20.657Z,47.14
2023-04-11T12:23:48.809Z,46.83
2023-04-11T12:26:17.675Z,46.58
2023-04-11T12:28:47.021Z,46.79
2023-04-11T12:31:15.731Z,46.58
2023-04-11T12:33:43.984Z,46.00
2023-04-11T12:36:13.712Z,45.75
2023-04-11T12:38:42.172Z,45.95
2023-04-11T12:43:42.333Z,46.76
2023-04-11T12:46:11.690Z,47.13
2023-04-11T12:48:42.434Z,44.74
2023-04-11T12:51:10.574Z,44.45
2023-04-11T12:53:38.667Z,44.06
2023-04-11T12:56:08.210Z,43.77
2023-04-11T12:58:36.346Z,44.62
2023-04-11T13:01:05.724Z,45.32
2023-04-11T13:03:35.558Z,44.78
2023-04-11T13:06:03.678Z,45.00
2023-04-11T13:08:31.752Z,46.29
2023-04-11T13:10:59.851Z,45.90
2023-04-11T13:13:27.881Z,45.11
2023-04-11T13:15:56.386Z,44.28
2023-04-11T13:18:24.478Z,43.56
2023-04-11T13:20:53.931Z,44.74
2023-04-11T13:23:22.035Z,44.33
2023-04-11T13:25:50.427Z,43.77
2023-04-11T13:28:18.632Z,42.62
2023-04-11T13:30:46.692Z,42.96
2023-04-11T13:33:14.787Z,43.13
2023-04-11T13:35:42.971Z,43.95
2023-04-11T13:38:12.840Z,43.47
2023-04-11T13:40:42.660Z,44.32
2023-04-11T13:43:11.056Z,41.79
2023-04-11T13:45:39.136Z,41.19
2023-04-11T13:48:07.241Z,41.05
2023-04-11T13:50:35.901Z,42.15
2023-04-11T13:53:04.202Z,42.49
2023-04-11T13:55:33.605Z,41.68
2023-04-11T13:58:02.051Z,40.93
2023-04-11T14:00:30.112Z,41.39
2023-04-11T14:02:58.354Z,41.08
2023-04-11T14:05:27.078Z,41.17
2023-04-11T14:07:55.071Z,40.66
2023-04-11T14:10:23.073Z,41.34
2023-04-11T14:12:52.585Z,40.93
2023-04-11T14:15:21.897Z,41.11
2023-04-11T14:17:50.047Z,40.13
2023-04-11T14:20:18.321Z,41.28
2023-04-11T14:22:46.995Z,40.97
2023-04-11T14:25:15.695Z,40.92
2023-04-11T14:27:44.350Z,39.72
2023-04-11T14:30:14.742Z,40.92
2023-04-11T14:32:42.849Z,40.07
2023-04-11T14:35:11.171Z,39.71
2023-04-11T14:37:39.292Z,40.76
2023-04-11T14:40:10.696Z,41.05
2023-04-11T14:42:39.589Z,40.81
2023-04-11T14:45:08.950Z,40.72
2023-04-11T14:47:39.774Z,41.30
2023-04-11T14:50:09.496Z,41.13
2023-04-11T14:52:37.677Z,40.53
2023-04-11T14:55:07.232Z,41.47
2023-04-11T14:57:49.797Z,41.58
2023-04-11T15:00:43.616Z,41.82
2023-04-11T15:03:13.327Z,41.95
2023-04-11T15:05:41.407Z,41.72
2023-04-11T15:08:09.844Z,42.12
2023-04-11T15:10:37.892Z,41.33
2023-04-11T15:13:07.033Z,41.43
2023-04-11T15:15:35.258Z,42.24
2023-04-11T15:18:30.208Z,41.50
2023-04-11T15:21:00.591Z,41.86
2023-04-11T15:23:29.024Z,42.28
2023-04-11T15:25:59.386Z,41.30
2023-04-11T15:28:32.285Z,40.67
2023-04-11T15:31:00.777Z,41.04
2023-04-11T15:33:31.548Z,41.40
2023-04-11T15:36:00.741Z,40.94
2023-04-11T15:38:29.802Z,42.02
2023-04-11T15:41:00.253Z,40.65
2023-04-11T15:43:29.175Z,40.76
2023-04-11T15:45:57.261Z,41.63
2023-04-11T15:48:25.328Z,41.74
2023-04-11T15:50:54.699Z,41.04
2023-04-11T15:53:23.070Z,40.67
2023-04-11T15:55:51.241Z,40.79
2023-04-11T15:58:19.397Z,41.28
2023-04-11T16:00:47.378Z,40.46
2023-04-11T16:03:16.587Z,41.61
2023-04-11T16:05:45.618Z,41.49
2023-04-11T16:08:16.832Z,41.34
2023-04-11T16:10:44.946Z,41.95
2023-04-11T16:13:12.957Z,41.47
2023-04-11T16:15:40.992Z,41.82
2023-04-11T16:18:09.206Z,42.17
2023-04-11T16:20:37.292Z,41.67
2023-04-11T16:23:05.657Z,42.64
2023-04-11T16:25:35.085Z,42.13
2023-04-11T16:28:03.427Z,42.97
2023-04-11T16:30:31.655Z,42.75
2023-04-11T16:32:59.730Z,42.79
2023-04-11T16:35:27.925Z,42.70
2023-04-11T16:37:56.118Z,42.96
2023-04-11T16:40:24.173Z,43.21
2023-04-11T16:42:53.871Z,43.24
2023-04-11T16:45:22.150Z,43.17
2023-04-11T16:47:50.417Z,43.16
2023-04-11T16:50:18.624Z,44.35
2023-04-11T16:52:46.708Z,43.90
2023-04-11T16:55:14.974Z,43.76
2023-04-11T16:57:43.223Z,43.83
2023-04-11T17:00:16.925Z,44.10
2023-04-11T17:02:45.492Z,43.59
2023-04-11T17:05:14.212Z,44.99
2023-04-11T17:07:43.622Z,44.39
2023-04-11T17:10:12.537Z,43.75
2023-04-11T17:12:40.795Z,44.06
2023-04-11T17:15:09.746Z,44.34
2023-04-11T17:17:39.188Z,44.36
2023-04-11T17:20:10.105Z,43.38
2023-04-11T17:22:41.305Z,43.23
2023-04-11T17:25:10.279Z,43.65
2023-04-11T17:27:38.428Z,43.91
2023-04-11T17:30:09.455Z,44.45
2023-04-11T17:32:39.166Z,44.67
2023-04-11T17:35:08.276Z,44.75
2023-04-11T17:37:36.997Z,43.88
2023-04-11T17:40:11.772Z,44.74
2023-04-11T17:42:40.095Z,44.27
2023-04-11T17:45:17.784Z,44.63
2023-04-11T17:47:48.367Z,45.00
2023-04-11T17:50:18.112Z,45.20
2023-04-11T17:52:47.250Z,45.34
2023-04-11T17:55:18.891Z,45.11
2023-04-11T17:57:48.888Z,45.57
2023-04-11T18:00:23.034Z,44.98
2023-04-11T18:02:57.492Z,45.05
2023-04-11T18:05:28.211Z,44.85
2023-04-11T18:07:58.927Z,45.71
2023-04-11T18:10:29.164Z,45.26
2023-04-11T18:12:59.310Z,46.19
2023-04-11T18:15:28.059Z,46.12
2023-04-11T18:17:57.518Z,46.40
2023-04-11T18:20:25.990Z,46.47
2023-04-11T18:22:55.947Z,47.03
2023-04-11T18:25:24.385Z,46.36
2023-04-11T18:27:52.595Z,46.64
2023-04-11T18:30:20.885Z,46.56
2023-04-11T18:32:51.443Z,46.95
2023-04-11T18:35:21.649Z,46.62
2023-04-11T18:37:49.836Z,47.21
2023-04-11T18:40:19.226Z,47.26
2023-04-11T18:42:51.813Z,48.07
2023-04-11T18:45:21.919Z,47.77
2023-04-11T18:47:50.852Z,48.04
2023-04-11T18:50:20.939Z,48.00
2023-04-11T18:52:52.964Z,48.11
2023-04-11T18:55:48.938Z,49.44
2023-04-11T18:58:19.053Z,49.25
2023-04-11T19:00:49.250Z,49.49
2023-04-11T19:03:17.952Z,49.48
2023-04-11T19:05:48.186Z,49.00
2023-04-11T19:08:17.926Z,50.08
2023-04-11T19:10:46.116Z,50.08
2023-04-11T19:13:14.180Z,49.64
2023-04-11T19:15:43.261Z,50.04
2023-04-11T19:18:11.723Z,50.39
2023-04-11T19:20:40.572Z,50.31
2023-04-11T19:23:09.985Z,50.03
2023-04-11T19:25:38.042Z,49.52
2023-04-11T19:28:06.639Z,50.24
2023-04-11T19:30:34.976Z,50.02
2023-04-11T19:33:03.784Z,49.72
2023-04-11T19:35:32.299Z,50.62
2023-04-11T19:38:02.320Z,49.99
2023-04-11T19:40:32.145Z,49.83
2023-04-11T19:43:00.245Z,49.84
2023-04-11T19:45:29.934Z,50.43
2023-04-11T19:48:00.125Z,50.82
2023-04-11T19:50:28.272Z,50.54
2023-04-11T19:52:57.695Z,50.53
2023-04-11T19:55:27.161Z,50.08
2023-04-11T19:57:56.544Z,50.04
2023-04-11T20:00:26.666Z,49.14
2023-04-11T20:02:56.152Z,49.58
2023-04-11T20:05:25.219Z,49.29
2023-04-11T20:07:53.236Z,49.66
2023-04-11T20:10:21.381Z,49.29
2023-04-11T20:12:49.423Z,49.79
2023-04-11T20:15:18.834Z,49.71
2023-04-11T20:17:46.946Z,49.95
2023-04-11T20:20:15.315Z,50.77
2023-04-11T20:22:45.258Z,50.74
2023-04-11T20:25:13.800Z,50.85
2023-04-11T20:27:43.742Z,51.45
2023-04-11T20:30:13.892Z,51.19
2023-04-11T20:32:43.873Z,51.58
2023-04-11T20:35:12.896Z,51.69
2023-04-11T20:37:43.463Z,51.81
2023-04-11T20:40:14.366Z,52.68
2023-04-11T20:42:43.072Z,52.05
2023-04-11T20:45:15.625Z,52.55
2023-04-11T20:47:46.654Z,52.94
2023-04-11T20:50:17.503Z,52.63
2023-04-11T20:52:47.725Z,52.61
2023-04-11T20:55:15.807Z,53.29
2023-04-11T20:57:44.612Z,52.92
2023-04-11T21:00:14.707Z,53.39
2023-04-11T21:02:46.284Z,53.28
2023-04-11T21:05:18.911Z,53.38
2023-04-11T21:07:47.350Z,53.62
2023-04-11T21:10:16.187Z,53.92
2023-04-11T21:12:51.058Z,53.66
2023-04-11T21:15:20.277Z,53.37
2023-04-11T21:17:50.130Z,53.60
2023-04-11T21:20:19.439Z,53.54
2023-04-11T21:22:48.684Z,53.18
2023-04-11T21:25:17.446Z,53.23
2023-04-11T21:27:45.793Z,53.54
2023-04-11T21:30:15.281Z,53.46
2023-04-11T21:32:43.503Z,53.08
2023-04-11T21:35:13.314Z,53.42
2023-04-11T21:37:41.382Z,53.05
2023-04-11T21:40:10.576Z,53.16
2023-04-11T21:42:39.030Z,53.22
2023-04-11T21:45:09.229Z,53.39
2023-04-11T21:47:37.286Z,53.12
2023-04-11T21:50:06.354Z,54.01
2023-04-11T21:52:35.947Z,53.30
2023-04-11T21:55:05.906Z,53.54
2023-04-11T21:57:36.515Z,53.91
2023-04-11T22:00:05.734Z,54.22
2023-04-11T22:02:40.788Z,53.70
2023-04-11T22:05:09.887Z,53.20
2023-04-11T22:07:47.079Z,53.58
2023-04-11T22:10:15.531Z,53.16
2023-04-11T22:12:45.584Z,53.34
2023-04-11T22:15:14.281Z,53.26
2023-04-11T22:17:43.629Z,53.71
2023-04-11T22:20:13.417Z,53.61
2023-04-11T22:22:44.708Z,53.38
2023-04-11T22:25:13.619Z,53.50
2023-04-11T22:27:41.615Z,53.39
2023-04-11T22:30:11.104Z,53.27
2023-04-11T22:32:39.241Z,53.62
2023-04-11T22:35:09.247Z,54.06
2023-04-11T22:37:37.508Z,54.28
2023-04-11T22:40:11.664Z,53.54
2023-04-11T22:42:39.815Z,53.79
2023-04-11T22:45:09.299Z,54.14
2023-04-11T22:47:38.138Z,53.33
2023-04-11T22:50:07.207Z,53.92
2023-04-11T22:52:35.526Z,53.59
2023-04-11T22:55:04.609Z,53.66
2023-04-11T22:57:35.187Z,53.61
2023-04-11T23:00:06.964Z,53.18
2023-04-11T23:02:37.412Z,53.50
2023-04-11T23:05:07.816Z,53.04
2023-04-11T23:07:35.989Z,53.54
2023-04-11T23:10:06.026Z,52.60
2023-04-11T23:12:35.360Z,52.81
2023-04-11T23:15:04.687Z,53.08
2023-04-11T23:17:33.108Z,52.21
2023-04-11T23:20:01.184Z,51.85
2023-04-11T23:22:29.498Z,51.03
2023-04-11T23:24:57.803Z,51.86
2023-04-11T23:27:25.780Z,52.26
2023-04-11T23:29:55.328Z,52.62
2023-04-11T23:32:23.627Z,52.04
2023-04-11T23:34:51.654Z,51.96
2023-04-11T23:37:19.821Z,51.84
2023-04-11T23:39:47.837Z,51.82
2023-04-11T23:42:16.085Z,51.93
2023-04-11T23:44:44.185Z,53.15
2023-04-11T23:47:14.009Z,52.94
2023-04-11T23:49:42.231Z,53.74
2023-04-11T23:52:11.095Z,52.85
2023-04-11T23:54:39.222Z,53.00
2023-04-11T23:57:07.383Z,53.12
2023-04-11T23:59:36.031Z,53.49
